sensor_id;sensor_type;location;lat;lon;timestamp;temperature;humidity
582;DHT22;277;50.074;8.436;2023-05-07T00:00:02;16.70;99.90
582;DHT22;277;50.074;8.436;2023-05-07T00:02:33;16.60;99.90
582;DHT22;277;50.074;8.436;2023-05-07T00:05:02;16.50;99.90
582;DHT22;277;50.074;8.436;2023-05-07T00:07:30;16.40;99.90
582;DHT22;277;50.074;8.436;2023-05-07T00:09:58;16.30;99.90
582;DHT22;277;50.074;8.436;2023-05-07T00:12:27;16.20;99.90
582;DHT22;277;50.074;8.436;2023-05-07T00:14:59;16.10;99.90
582;DHT22;277;50.074;8.436;2023-05-07T00:17:27;16.10;99.90
582;DHT22;277;50.074;8.436;2023-05-07T00:19:55;16.10;99.90
582;DHT22;277;50.074;8.436;2023-05-07T00:22:23;16.10;99.90
582;DHT22;277;50.074;8.436;2023-05-07T00:24:50;16.00;99.90
582;DHT22;277;50.074;8.436;2023-05-07T00:27:18;16.00;99.90
582;DHT22;277;50.074;8.436;2023-05-07T00:29:46;16.20;99.90
582;DHT22;277;50.074;8.436;2023-05-07T00:32:15;16.20;99.90
582;DHT22;277;50.074;8.436;2023-05-07T00:34:43;16.20;99.90
582;DHT22;277;50.074;8.436;2023-05-07T00:37:11;16.20;99.90
582;DHT22;277;50.074;8.436;2023-05-07T00:39:39;16.30;99.90
582;DHT22;277;50.074;8.436;2023-05-07T00:42:07;16.30;99.90
582;DHT22;277;50.074;8.436;2023-05-07T00:44:35;16.20;99.90
582;DHT22;277;50.074;8.436;2023-05-07T00:47:04;16.20;99.90
582;DHT22;277;50.074;8.436;2023-05-07T00:49:37;16.20;99.90
582;DHT22;277;50.074;8.436;2023-05-07T00:52:06;16.20;99.90
582;DHT22;277;50.074;8.436;2023-05-07T00:54:34;16.20;99.90
582;DHT22;277;50.074;8.436;2023-05-07T00:57:03;16.10;99.90
582;DHT22;277;50.074;8.436;2023-05-07T00:59:31;16.20;99.90
582;DHT22;277;50.074;8.436;2023-05-07T01:02:00;16.20;99.90
582;DHT22;277;50.074;8.436;2023-05-07T01:04:28;16.20;99.90
582;DHT22;277;50.074;8.436;2023-05-07T01:06:58;16.30;99.90
582;DHT22;277;50.074;8.436;2023-05-07T01:09:28;16.30;99.90
582;DHT22;277;50.074;8.436;2023-05-07T01:11:56;16.40;99.90
582;DHT22;277;50.074;8.436;2023-05-07T01:14:25;16.40;99.90
582;DHT22;277;50.074;8.436;2023-05-07T01:16:53;16.40;99.90
582;DHT22;277;50.074;8.436;2023-05-07T01:19:22;16.40;99.90
582;DHT22;277;50.074;8.436;2023-05-07T01:21:51;16.40;99.90
582;DHT22;277;50.074;8.436;2023-05-07T01:24:20;16.50;99.90
582;DHT22;277;50.074;8.436;2023-05-07T01:26:48;16.40;99.90
582;DHT22;277;50.074;8.436;2023-05-07T01:29:16;16.40;99.90
582;DHT22;277;50.074;8.436;2023-05-07T01:31:44;16.50;99.90
582;DHT22;277;50.074;8.436;2023-05-07T01:34:15;16.60;99.90
582;DHT22;277;50.074;8.436;2023-05-07T01:36:45;16.50;99.90
582;DHT22;277;50.074;8.436;2023-05-07T01:39:15;16.50;99.90
582;DHT22;277;50.074;8.436;2023-05-07T01:41:45;16.40;99.90
582;DHT22;277;50.074;8.436;2023-05-07T01:44:14;16.30;99.90
582;DHT22;277;50.074;8.436;2023-05-07T01:46:42;16.40;99.90
582;DHT22;277;50.074;8.436;2023-05-07T01:49:10;16.30;99.90
582;DHT22;277;50.074;8.436;2023-05-07T01:51:39;16.30;99.90
582;DHT22;277;50.074;8.436;2023-05-07T01:54:07;16.20;99.90
582;DHT22;277;50.074;8.436;2023-05-07T01:56:35;16.20;99.90
582;DHT22;277;50.074;8.436;2023-05-07T01:59:04;16.10;99.90
582;DHT22;277;50.074;8.436;2023-05-07T02:01:32;16.00;99.90
582;DHT22;277;50.074;8.436;2023-05-07T02:04:00;16.00;99.90
582;DHT22;277;50.074;8.436;2023-05-07T02:06:28;16.00;99.90
582;DHT22;277;50.074;8.436;2023-05-07T02:08:57;15.90;99.90
582;DHT22;277;50.074;8.436;2023-05-07T02:11:25;16.00;99.90
582;DHT22;277;50.074;8.436;2023-05-07T02:13:53;16.00;99.90
582;DHT22;277;50.074;8.436;2023-05-07T02:16:22;16.00;99.90
582;DHT22;277;50.074;8.436;2023-05-07T02:18:50;16.00;99.90
582;DHT22;277;50.074;8.436;2023-05-07T02:21:18;16.00;99.90
582;DHT22;277;50.074;8.436;2023-05-07T02:23:46;16.10;99.90
582;DHT22;277;50.074;8.436;2023-05-07T02:26:14;16.10;99.90
582;DHT22;277;50.074;8.436;2023-05-07T02:28:42;16.20;99.90
582;DHT22;277;50.074;8.436;2023-05-07T02:31:10;16.20;99.90
582;DHT22;277;50.074;8.436;2023-05-07T02:33:39;16.30;99.90
582;DHT22;277;50.074;8.436;2023-05-07T02:36:08;16.30;99.90
582;DHT22;277;50.074;8.436;2023-05-07T02:38:36;16.30;99.90
582;DHT22;277;50.074;8.436;2023-05-07T02:41:04;16.30;99.90
582;DHT22;277;50.074;8.436;2023-05-07T02:43:32;16.40;99.90
582;DHT22;277;50.074;8.436;2023-05-07T02:46:01;16.40;99.90
582;DHT22;277;50.074;8.436;2023-05-07T02:48:29;16.40;99.90
582;DHT22;277;50.074;8.436;2023-05-07T02:50:59;16.50;99.90
582;DHT22;277;50.074;8.436;2023-05-07T02:53:27;16.50;99.90
582;DHT22;277;50.074;8.436;2023-05-07T02:55:56;16.50;99.90
582;DHT22;277;50.074;8.436;2023-05-07T02:58:25;16.40;99.90
582;DHT22;277;50.074;8.436;2023-05-07T03:00:53;16.30;99.90
582;DHT22;277;50.074;8.436;2023-05-07T03:03:22;16.30;99.90
582;DHT22;277;50.074;8.436;2023-05-07T03:05:50;16.20;99.90
582;DHT22;277;50.074;8.436;2023-05-07T03:08:19;16.20;99.90
582;DHT22;277;50.074;8.436;2023-05-07T03:10:47;16.20;99.90
582;DHT22;277;50.074;8.436;2023-05-07T03:13:15;16.10;99.90
582;DHT22;277;50.074;8.436;2023-05-07T03:15:43;16.00;99.90
582;DHT22;277;50.074;8.436;2023-05-07T03:18:12;16.00;99.90
582;DHT22;277;50.074;8.436;2023-05-07T03:20:40;16.00;99.90
582;DHT22;277;50.074;8.436;2023-05-07T03:23:07;16.00;99.90
582;DHT22;277;50.074;8.436;2023-05-07T03:25:37;16.10;99.90
582;DHT22;277;50.074;8.436;2023-05-07T03:28:05;16.00;99.90
582;DHT22;277;50.074;8.436;2023-05-07T03:30:33;16.00;99.90
582;DHT22;277;50.074;8.436;2023-05-07T03:33:00;16.00;99.90
582;DHT22;277;50.074;8.436;2023-05-07T03:35:28;15.90;99.90
582;DHT22;277;50.074;8.436;2023-05-07T03:37:56;15.80;99.90
582;DHT22;277;50.074;8.436;2023-05-07T03:40:24;15.70;99.90
582;DHT22;277;50.074;8.436;2023-05-07T03:42:54;15.60;99.90
582;DHT22;277;50.074;8.436;2023-05-07T03:45:21;15.60;99.90
582;DHT22;277;50.074;8.436;2023-05-07T03:47:49;15.60;99.90
582;DHT22;277;50.074;8.436;2023-05-07T03:50:17;15.50;99.90
582;DHT22;277;50.074;8.436;2023-05-07T03:52:45;15.60;99.90
582;DHT22;277;50.074;8.436;2023-05-07T03:55:13;15.60;99.90
582;DHT22;277;50.074;8.436;2023-05-07T03:57:41;15.60;99.90
582;DHT22;277;50.074;8.436;2023-05-07T04:00:12;15.60;99.90
582;DHT22;277;50.074;8.436;2023-05-07T04:02:40;15.60;99.90
582;DHT22;277;50.074;8.436;2023-05-07T04:05:08;15.70;99.90
582;DHT22;277;50.074;8.436;2023-05-07T04:07:36;15.70;99.90
582;DHT22;277;50.074;8.436;2023-05-07T04:10:05;15.70;99.90
582;DHT22;277;50.074;8.436;2023-05-07T04:12:33;15.70;99.90
582;DHT22;277;50.074;8.436;2023-05-07T04:15:01;15.80;99.90
582;DHT22;277;50.074;8.436;2023-05-07T04:17:30;15.90;99.90
582;DHT22;277;50.074;8.436;2023-05-07T04:19:58;15.90;99.90
582;DHT22;277;50.074;8.436;2023-05-07T04:22:26;15.90;99.90
582;DHT22;277;50.074;8.436;2023-05-07T04:24:54;15.90;99.90
582;DHT22;277;50.074;8.436;2023-05-07T04:27:22;15.90;99.90
582;DHT22;277;50.074;8.436;2023-05-07T04:29:51;15.90;99.90
582;DHT22;277;50.074;8.436;2023-05-07T04:32:22;15.90;99.90
582;DHT22;277;50.074;8.436;2023-05-07T04:34:52;16.00;99.90
582;DHT22;277;50.074;8.436;2023-05-07T04:37:20;16.00;99.90
582;DHT22;277;50.074;8.436;2023-05-07T04:39:48;16.10;99.90
582;DHT22;277;50.074;8.436;2023-05-07T04:42:16;16.10;99.90
582;DHT22;277;50.074;8.436;2023-05-07T04:44:45;16.00;99.90
582;DHT22;277;50.074;8.436;2023-05-07T04:47:13;15.90;99.90
582;DHT22;277;50.074;8.436;2023-05-07T04:49:41;15.80;99.90
582;DHT22;277;50.074;8.436;2023-05-07T04:52:10;15.80;99.90
582;DHT22;277;50.074;8.436;2023-05-07T04:54:38;15.70;99.90
582;DHT22;277;50.074;8.436;2023-05-07T04:57:05;15.70;99.90
582;DHT22;277;50.074;8.436;2023-05-07T04:59:33;15.80;99.90
582;DHT22;277;50.074;8.436;2023-05-07T05:02:01;15.90;99.90
582;DHT22;277;50.074;8.436;2023-05-07T05:04:30;15.80;99.90
582;DHT22;277;50.074;8.436;2023-05-07T05:06:58;15.80;99.90
582;DHT22;277;50.074;8.436;2023-05-07T05:09:27;15.80;99.90
582;DHT22;277;50.074;8.436;2023-05-07T05:11:55;15.80;99.90
582;DHT22;277;50.074;8.436;2023-05-07T05:14:23;15.80;99.90
582;DHT22;277;50.074;8.436;2023-05-07T05:16:51;15.80;99.90
582;DHT22;277;50.074;8.436;2023-05-07T05:19:19;15.80;99.90
582;DHT22;277;50.074;8.436;2023-05-07T05:21:47;15.90;99.90
582;DHT22;277;50.074;8.436;2023-05-07T05:24:15;15.90;99.90
582;DHT22;277;50.074;8.436;2023-05-07T05:26:44;15.90;99.90
582;DHT22;277;50.074;8.436;2023-05-07T05:29:12;15.90;99.90
582;DHT22;277;50.074;8.436;2023-05-07T05:31:40;15.90;99.90
582;DHT22;277;50.074;8.436;2023-05-07T05:34:08;15.90;99.90
582;DHT22;277;50.074;8.436;2023-05-07T05:36:36;15.90;99.90
582;DHT22;277;50.074;8.436;2023-05-07T05:39:04;16.00;99.90
582;DHT22;277;50.074;8.436;2023-05-07T05:41:32;16.00;99.90
582;DHT22;277;50.074;8.436;2023-05-07T05:44:01;16.00;99.90
582;DHT22;277;50.074;8.436;2023-05-07T05:46:29;16.10;99.90
582;DHT22;277;50.074;8.436;2023-05-07T05:48:59;16.10;99.90
582;DHT22;277;50.074;8.436;2023-05-07T05:51:27;16.20;99.90
582;DHT22;277;50.074;8.436;2023-05-07T05:53:54;16.20;99.90
582;DHT22;277;50.074;8.436;2023-05-07T05:56:22;16.20;99.90
582;DHT22;277;50.074;8.436;2023-05-07T05:58:51;16.30;99.90
582;DHT22;277;50.074;8.436;2023-05-07T06:01:20;16.30;99.90
582;DHT22;277;50.074;8.436;2023-05-07T06:03:48;16.30;99.90
582;DHT22;277;50.074;8.436;2023-05-07T06:06:16;16.40;99.90
582;DHT22;277;50.074;8.436;2023-05-07T06:08:44;16.50;99.90
582;DHT22;277;50.074;8.436;2023-05-07T06:11:12;16.60;99.90
582;DHT22;277;50.074;8.436;2023-05-07T06:13:40;16.50;99.90
582;DHT22;277;50.074;8.436;2023-05-07T06:16:08;16.60;99.90
582;DHT22;277;50.074;8.436;2023-05-07T06:18:37;16.60;99.90
582;DHT22;277;50.074;8.436;2023-05-07T06:21:05;16.70;99.90
582;DHT22;277;50.074;8.436;2023-05-07T06:23:33;16.70;99.90
582;DHT22;277;50.074;8.436;2023-05-07T06:26:01;16.70;99.90
582;DHT22;277;50.074;8.436;2023-05-07T06:28:29;16.70;99.90
582;DHT22;277;50.074;8.436;2023-05-07T06:31:12;16.80;99.90
582;DHT22;277;50.074;8.436;2023-05-07T06:33:42;16.80;99.90
582;DHT22;277;50.074;8.436;2023-05-07T06:36:10;16.90;99.90
582;DHT22;277;50.074;8.436;2023-05-07T06:38:38;16.90;99.90
582;DHT22;277;50.074;8.436;2023-05-07T06:41:06;17.00;99.90
582;DHT22;277;50.074;8.436;2023-05-07T06:43:35;17.00;99.90
582;DHT22;277;50.074;8.436;2023-05-07T06:46:03;17.20;99.90
582;DHT22;277;50.074;8.436;2023-05-07T06:48:31;17.30;99.90
582;DHT22;277;50.074;8.436;2023-05-07T06:51:00;17.50;99.90
582;DHT22;277;50.074;8.436;2023-05-07T06:53:28;17.60;99.90
582;DHT22;277;50.074;8.436;2023-05-07T06:55:57;17.70;99.90
582;DHT22;277;50.074;8.436;2023-05-07T06:58:25;17.70;99.90
582;DHT22;277;50.074;8.436;2023-05-07T07:00:53;17.70;99.90
582;DHT22;277;50.074;8.436;2023-05-07T07:03:20;17.80;99.90
582;DHT22;277;50.074;8.436;2023-05-07T07:05:51;17.90;99.90
582;DHT22;277;50.074;8.436;2023-05-07T07:08:22;18.00;99.90
582;DHT22;277;50.074;8.436;2023-05-07T07:10:50;18.10;99.90
582;DHT22;277;50.074;8.436;2023-05-07T07:13:17;18.10;99.90
582;DHT22;277;50.074;8.436;2023-05-07T07:15:45;18.20;99.90
582;DHT22;277;50.074;8.436;2023-05-07T07:18:13;18.10;99.90
582;DHT22;277;50.074;8.436;2023-05-07T07:20:41;18.20;99.90
582;DHT22;277;50.074;8.436;2023-05-07T07:23:11;18.10;99.90
582;DHT22;277;50.074;8.436;2023-05-07T07:25:40;17.90;99.90
582;DHT22;277;50.074;8.436;2023-05-07T07:28:08;17.90;99.90
582;DHT22;277;50.074;8.436;2023-05-07T07:30:37;18.00;99.90
582;DHT22;277;50.074;8.436;2023-05-07T07:33:05;18.00;99.90
582;DHT22;277;50.074;8.436;2023-05-07T07:35:33;18.00;99.90
582;DHT22;277;50.074;8.436;2023-05-07T07:38:01;18.00;99.90
582;DHT22;277;50.074;8.436;2023-05-07T07:40:29;18.00;99.90
582;DHT22;277;50.074;8.436;2023-05-07T07:42:58;18.10;99.90
582;DHT22;277;50.074;8.436;2023-05-07T07:45:27;18.10;99.90
582;DHT22;277;50.074;8.436;2023-05-07T07:47:55;18.00;99.90
582;DHT22;277;50.074;8.436;2023-05-07T07:50:23;17.90;99.90
582;DHT22;277;50.074;8.436;2023-05-07T07:52:57;17.90;99.90
582;DHT22;277;50.074;8.436;2023-05-07T07:55:25;17.70;99.90
582;DHT22;277;50.074;8.436;2023-05-07T07:57:53;17.70;99.90
582;DHT22;277;50.074;8.436;2023-05-07T08:00:23;17.70;99.90
582;DHT22;277;50.074;8.436;2023-05-07T08:02:51;17.70;99.90
582;DHT22;277;50.074;8.436;2023-05-07T08:05:19;17.80;99.90
582;DHT22;277;50.074;8.436;2023-05-07T08:07:47;17.90;99.90
582;DHT22;277;50.074;8.436;2023-05-07T08:10:18;17.90;99.90
582;DHT22;277;50.074;8.436;2023-05-07T08:12:48;17.80;99.90
582;DHT22;277;50.074;8.436;2023-05-07T08:15:16;17.90;99.90
582;DHT22;277;50.074;8.436;2023-05-07T08:17:46;18.00;99.90
582;DHT22;277;50.074;8.436;2023-05-07T08:20:14;18.00;99.90
582;DHT22;277;50.074;8.436;2023-05-07T08:22:42;18.10;99.90
582;DHT22;277;50.074;8.436;2023-05-07T08:25:09;18.20;99.90
582;DHT22;277;50.074;8.436;2023-05-07T08:27:37;18.30;99.90
582;DHT22;277;50.074;8.436;2023-05-07T08:30:06;18.30;99.90
582;DHT22;277;50.074;8.436;2023-05-07T08:32:35;18.40;99.90
582;DHT22;277;50.074;8.436;2023-05-07T08:35:05;18.40;99.90
582;DHT22;277;50.074;8.436;2023-05-07T08:37:33;18.50;99.90
582;DHT22;277;50.074;8.436;2023-05-07T08:40:01;18.70;99.90
582;DHT22;277;50.074;8.436;2023-05-07T08:42:29;18.60;99.90
582;DHT22;277;50.074;8.436;2023-05-07T08:44:59;18.60;99.90
582;DHT22;277;50.074;8.436;2023-05-07T08:47:34;18.70;99.90
582;DHT22;277;50.074;8.436;2023-05-07T08:50:04;18.70;99.90
582;DHT22;277;50.074;8.436;2023-05-07T08:52:32;18.90;99.90
582;DHT22;277;50.074;8.436;2023-05-07T08:55:01;19.00;99.90
582;DHT22;277;50.074;8.436;2023-05-07T08:57:29;19.10;99.90
582;DHT22;277;50.074;8.436;2023-05-07T08:59:57;19.20;99.90
582;DHT22;277;50.074;8.436;2023-05-07T09:02:26;19.20;99.90
582;DHT22;277;50.074;8.436;2023-05-07T09:04:54;19.30;99.90
582;DHT22;277;50.074;8.436;2023-05-07T09:07:23;19.40;99.90
582;DHT22;277;50.074;8.436;2023-05-07T09:09:52;19.60;99.90
582;DHT22;277;50.074;8.436;2023-05-07T09:12:21;20.00;99.90
582;DHT22;277;50.074;8.436;2023-05-07T09:14:49;20.50;99.90
582;DHT22;277;50.074;8.436;2023-05-07T09:17:17;20.90;99.90
582;DHT22;277;50.074;8.436;2023-05-07T09:19:45;20.80;99.90
582;DHT22;277;50.074;8.436;2023-05-07T09:22:13;20.60;99.90
582;DHT22;277;50.074;8.436;2023-05-07T09:24:47;20.60;99.90
582;DHT22;277;50.074;8.436;2023-05-07T09:27:17;20.90;99.90
582;DHT22;277;50.074;8.436;2023-05-07T09:29:45;20.90;99.90
582;DHT22;277;50.074;8.436;2023-05-07T09:32:14;21.00;99.90
582;DHT22;277;50.074;8.436;2023-05-07T09:34:42;21.30;99.90
582;DHT22;277;50.074;8.436;2023-05-07T09:37:12;21.40;99.90
582;DHT22;277;50.074;8.436;2023-05-07T09:39:43;21.40;99.90
582;DHT22;277;50.074;8.436;2023-05-07T09:42:12;21.50;99.90
582;DHT22;277;50.074;8.436;2023-05-07T09:44:41;21.70;99.90
582;DHT22;277;50.074;8.436;2023-05-07T09:47:11;21.80;99.90
582;DHT22;277;50.074;8.436;2023-05-07T09:49:47;22.00;99.90
582;DHT22;277;50.074;8.436;2023-05-07T09:52:16;22.00;99.90
582;DHT22;277;50.074;8.436;2023-05-07T09:54:47;22.00;99.90
582;DHT22;277;50.074;8.436;2023-05-07T09:57:17;22.10;99.90
582;DHT22;277;50.074;8.436;2023-05-07T09:59:47;21.90;99.90
582;DHT22;277;50.074;8.436;2023-05-07T10:02:17;21.90;99.90
582;DHT22;277;50.074;8.436;2023-05-07T10:04:48;21.80;99.90
582;DHT22;277;50.074;8.436;2023-05-07T10:07:16;21.70;99.90
582;DHT22;277;50.074;8.436;2023-05-07T10:09:46;21.70;99.90
582;DHT22;277;50.074;8.436;2023-05-07T10:12:15;21.70;99.90
582;DHT22;277;50.074;8.436;2023-05-07T10:14:44;21.80;99.90
582;DHT22;277;50.074;8.436;2023-05-07T10:17:13;21.60;99.90
582;DHT22;277;50.074;8.436;2023-05-07T10:19:44;21.70;99.90
582;DHT22;277;50.074;8.436;2023-05-07T10:22:13;21.90;99.90
582;DHT22;277;50.074;8.436;2023-05-07T10:24:42;22.20;99.90
582;DHT22;277;50.074;8.436;2023-05-07T10:27:14;22.40;99.90
582;DHT22;277;50.074;8.436;2023-05-07T10:29:49;23.00;99.90
582;DHT22;277;50.074;8.436;2023-05-07T10:32:33;23.20;99.90
582;DHT22;277;50.074;8.436;2023-05-07T10:35:06;23.40;99.90
582;DHT22;277;50.074;8.436;2023-05-07T10:37:36;23.70;99.90
582;DHT22;277;50.074;8.436;2023-05-07T10:40:05;23.90;99.90
582;DHT22;277;50.074;8.436;2023-05-07T10:42:35;23.80;99.90
582;DHT22;277;50.074;8.436;2023-05-07T10:45:13;24.10;99.90
582;DHT22;277;50.074;8.436;2023-05-07T10:48:05;24.20;99.90
582;DHT22;277;50.074;8.436;2023-05-07T10:51:20;23.90;99.90
582;DHT22;277;50.074;8.436;2023-05-07T10:53:48;23.90;99.90
582;DHT22;277;50.074;8.436;2023-05-07T10:56:26;23.80;99.90
582;DHT22;277;50.074;8.436;2023-05-07T10:59:30;23.70;99.90
582;DHT22;277;50.074;8.436;2023-05-07T11:01:59;23.40;99.90
582;DHT22;277;50.074;8.436;2023-05-07T11:04:29;23.30;99.90
582;DHT22;277;50.074;8.436;2023-05-07T11:07:26;23.20;99.90
582;DHT22;277;50.074;8.436;2023-05-07T11:09:59;23.30;99.90
582;DHT22;277;50.074;8.436;2023-05-07T11:12:50;23.10;99.90
582;DHT22;277;50.074;8.436;2023-05-07T11:15:37;23.20;99.90
582;DHT22;277;50.074;8.436;2023-05-07T11:18:05;23.40;99.90
582;DHT22;277;50.074;8.436;2023-05-07T11:20:48;23.40;99.90
582;DHT22;277;50.074;8.436;2023-05-07T11:23:57;23.30;99.90
582;DHT22;277;50.074;8.436;2023-05-07T11:26:27;23.70;99.90
582;DHT22;277;50.074;8.436;2023-05-07T11:28:55;23.90;99.90
582;DHT22;277;50.074;8.436;2023-05-07T11:31:27;24.00;99.90
582;DHT22;277;50.074;8.436;2023-05-07T11:33:57;23.90;99.90
582;DHT22;277;50.074;8.436;2023-05-07T11:36:30;23.90;99.90
582;DHT22;277;50.074;8.436;2023-05-07T11:38:58;24.00;99.90
582;DHT22;277;50.074;8.436;2023-05-07T11:41:33;23.70;99.90
582;DHT22;277;50.074;8.436;2023-05-07T11:44:02;23.70;99.90
582;DHT22;277;50.074;8.436;2023-05-07T11:46:32;23.60;99.90
582;DHT22;277;50.074;8.436;2023-05-07T11:49:01;23.50;99.90
582;DHT22;277;50.074;8.436;2023-05-07T11:51:30;23.70;99.90
582;DHT22;277;50.074;8.436;2023-05-07T11:53:58;23.70;99.90
582;DHT22;277;50.074;8.436;2023-05-07T11:56:26;23.80;99.90
582;DHT22;277;50.074;8.436;2023-05-07T11:58:54;24.00;99.90
582;DHT22;277;50.074;8.436;2023-05-07T12:01:21;24.00;99.90
582;DHT22;277;50.074;8.436;2023-05-07T12:03:51;24.00;99.90
582;DHT22;277;50.074;8.436;2023-05-07T12:06:19;24.10;99.90
582;DHT22;277;50.074;8.436;2023-05-07T12:08:47;24.40;99.90
582;DHT22;277;50.074;8.436;2023-05-07T12:11:21;24.80;99.90
582;DHT22;277;50.074;8.436;2023-05-07T12:13:49;24.90;99.90
582;DHT22;277;50.074;8.436;2023-05-07T12:16:17;25.00;99.90
582;DHT22;277;50.074;8.436;2023-05-07T12:18:46;25.00;99.90
582;DHT22;277;50.074;8.436;2023-05-07T12:21:16;25.00;99.90
582;DHT22;277;50.074;8.436;2023-05-07T12:23:44;25.30;99.90
582;DHT22;277;50.074;8.436;2023-05-07T12:26:12;25.30;99.90
582;DHT22;277;50.074;8.436;2023-05-07T12:28:40;25.30;99.90
582;DHT22;277;50.074;8.436;2023-05-07T12:31:08;24.90;99.90
582;DHT22;277;50.074;8.436;2023-05-07T12:33:37;24.80;99.90
582;DHT22;277;50.074;8.436;2023-05-07T12:36:06;24.90;99.90
582;DHT22;277;50.074;8.436;2023-05-07T12:38:37;25.00;99.90
582;DHT22;277;50.074;8.436;2023-05-07T12:41:07;25.50;99.90
582;DHT22;277;50.074;8.436;2023-05-07T12:43:36;25.60;99.90
582;DHT22;277;50.074;8.436;2023-05-07T12:46:05;25.70;99.90
582;DHT22;277;50.074;8.436;2023-05-07T12:48:35;25.70;99.90
582;DHT22;277;50.074;8.436;2023-05-07T12:51:05;26.00;99.90
582;DHT22;277;50.074;8.436;2023-05-07T12:53:33;26.50;99.90
582;DHT22;277;50.074;8.436;2023-05-07T12:56:08;27.20;98.90
582;DHT22;277;50.074;8.436;2023-05-07T12:58:36;27.60;99.00
582;DHT22;277;50.074;8.436;2023-05-07T13:01:05;27.50;97.30
582;DHT22;277;50.074;8.436;2023-05-07T13:03:35;27.20;96.90
582;DHT22;277;50.074;8.436;2023-05-07T13:06:05;26.90;98.00
582;DHT22;277;50.074;8.436;2023-05-07T13:08:36;26.50;98.60
582;DHT22;277;50.074;8.436;2023-05-07T13:11:09;26.40;97.90
582;DHT22;277;50.074;8.436;2023-05-07T13:13:38;26.50;97.80
582;DHT22;277;50.074;8.436;2023-05-07T13:16:08;26.50;97.00
582;DHT22;277;50.074;8.436;2023-05-07T13:18:39;26.60;97.40
582;DHT22;277;50.074;8.436;2023-05-07T13:21:10;26.70;97.00
582;DHT22;277;50.074;8.436;2023-05-07T13:23:39;26.50;97.00
582;DHT22;277;50.074;8.436;2023-05-07T13:26:09;26.50;96.90
582;DHT22;277;50.074;8.436;2023-05-07T13:28:52;26.80;97.10
582;DHT22;277;50.074;8.436;2023-05-07T13:31:20;27.20;96.20
582;DHT22;277;50.074;8.436;2023-05-07T13:33:48;27.40;95.80
582;DHT22;277;50.074;8.436;2023-05-07T13:36:16;27.70;94.60
582;DHT22;277;50.074;8.436;2023-05-07T13:38:44;27.90;95.20
582;DHT22;277;50.074;8.436;2023-05-07T13:41:14;28.50;94.60
582;DHT22;277;50.074;8.436;2023-05-07T13:43:42;28.50;95.00
582;DHT22;277;50.074;8.436;2023-05-07T13:46:10;28.80;95.40
582;DHT22;277;50.074;8.436;2023-05-07T13:48:38;28.80;95.40
582;DHT22;277;50.074;8.436;2023-05-07T13:51:06;28.40;94.10
582;DHT22;277;50.074;8.436;2023-05-07T13:53:34;28.50;94.50
582;DHT22;277;50.074;8.436;2023-05-07T13:56:02;28.30;95.00
582;DHT22;277;50.074;8.436;2023-05-07T13:58:32;27.90;95.30
582;DHT22;277;50.074;8.436;2023-05-07T14:01:03;27.70;95.70
582;DHT22;277;50.074;8.436;2023-05-07T14:03:32;27.60;95.20
582;DHT22;277;50.074;8.436;2023-05-07T14:06:00;27.70;95.70
582;DHT22;277;50.074;8.436;2023-05-07T14:08:28;27.80;95.80
582;DHT22;277;50.074;8.436;2023-05-07T14:10:57;27.70;95.60
582;DHT22;277;50.074;8.436;2023-05-07T14:13:26;27.30;95.20
582;DHT22;277;50.074;8.436;2023-05-07T14:15:56;26.80;95.60
582;DHT22;277;50.074;8.436;2023-05-07T14:18:23;26.70;95.40
582;DHT22;277;50.074;8.436;2023-05-07T14:20:51;26.60;95.80
582;DHT22;277;50.074;8.436;2023-05-07T14:23:19;26.70;96.60
582;DHT22;277;50.074;8.436;2023-05-07T14:25:53;26.70;96.10
582;DHT22;277;50.074;8.436;2023-05-07T14:28:21;27.00;96.70
582;DHT22;277;50.074;8.436;2023-05-07T14:30:49;27.10;96.10
582;DHT22;277;50.074;8.436;2023-05-07T14:33:18;27.10;95.50
582;DHT22;277;50.074;8.436;2023-05-07T14:35:46;27.20;96.10
582;DHT22;277;50.074;8.436;2023-05-07T14:38:15;27.30;95.90
582;DHT22;277;50.074;8.436;2023-05-07T14:40:44;27.40;95.70
582;DHT22;277;50.074;8.436;2023-05-07T14:43:12;27.60;96.00
582;DHT22;277;50.074;8.436;2023-05-07T14:45:41;27.50;95.50
582;DHT22;277;50.074;8.436;2023-05-07T14:48:08;27.30;95.50
582;DHT22;277;50.074;8.436;2023-05-07T14:50:42;27.10;95.70
582;DHT22;277;50.074;8.436;2023-05-07T14:53:10;26.70;96.10
582;DHT22;277;50.074;8.436;2023-05-07T14:55:38;26.50;96.20
582;DHT22;277;50.074;8.436;2023-05-07T14:58:07;26.20;95.80
582;DHT22;277;50.074;8.436;2023-05-07T15:00:34;25.90;95.40
582;DHT22;277;50.074;8.436;2023-05-07T15:03:05;25.90;96.00
582;DHT22;277;50.074;8.436;2023-05-07T15:05:35;25.80;96.60
582;DHT22;277;50.074;8.436;2023-05-07T15:08:05;25.70;96.50
582;DHT22;277;50.074;8.436;2023-05-07T15:10:35;25.40;97.00
582;DHT22;277;50.074;8.436;2023-05-07T15:13:08;25.20;97.20
582;DHT22;277;50.074;8.436;2023-05-07T15:15:40;25.00;97.20
582;DHT22;277;50.074;8.436;2023-05-07T15:18:08;24.90;97.20
582;DHT22;277;50.074;8.436;2023-05-07T15:20:36;24.70;97.20
582;DHT22;277;50.074;8.436;2023-05-07T15:23:06;24.40;97.10
582;DHT22;277;50.074;8.436;2023-05-07T15:25:36;24.30;97.50
582;DHT22;277;50.074;8.436;2023-05-07T15:28:04;24.20;97.20
582;DHT22;277;50.074;8.436;2023-05-07T15:30:32;24.20;97.20
582;DHT22;277;50.074;8.436;2023-05-07T15:33:01;24.30;97.30
582;DHT22;277;50.074;8.436;2023-05-07T15:35:29;24.40;97.60
582;DHT22;277;50.074;8.436;2023-05-07T15:37:57;24.40;97.40
582;DHT22;277;50.074;8.436;2023-05-07T15:40:26;24.40;97.90
582;DHT22;277;50.074;8.436;2023-05-07T15:42:55;24.50;98.00
582;DHT22;277;50.074;8.436;2023-05-07T15:45:23;24.30;97.90
582;DHT22;277;50.074;8.436;2023-05-07T15:47:52;24.20;97.60
582;DHT22;277;50.074;8.436;2023-05-07T15:50:20;24.00;98.10
582;DHT22;277;50.074;8.436;2023-05-07T15:52:48;23.90;98.20
582;DHT22;277;50.074;8.436;2023-05-07T15:55:16;23.80;98.10
582;DHT22;277;50.074;8.436;2023-05-07T15:57:45;23.70;98.00
582;DHT22;277;50.074;8.436;2023-05-07T16:00:14;23.70;98.20
582;DHT22;277;50.074;8.436;2023-05-07T16:02:44;23.60;98.60
582;DHT22;277;50.074;8.436;2023-05-07T16:05:12;23.50;98.40
582;DHT22;277;50.074;8.436;2023-05-07T16:07:40;23.30;98.60
582;DHT22;277;50.074;8.436;2023-05-07T16:10:10;23.20;99.00
582;DHT22;277;50.074;8.436;2023-05-07T16:12:38;23.20;99.00
582;DHT22;277;50.074;8.436;2023-05-07T16:15:08;23.20;98.90
582;DHT22;277;50.074;8.436;2023-05-07T16:17:37;23.10;98.40
582;DHT22;277;50.074;8.436;2023-05-07T16:20:06;23.10;98.30
582;DHT22;277;50.074;8.436;2023-05-07T16:22:34;23.10;98.30
582;DHT22;277;50.074;8.436;2023-05-07T16:25:03;23.10;98.20
582;DHT22;277;50.074;8.436;2023-05-07T16:27:31;22.90;98.10
582;DHT22;277;50.074;8.436;2023-05-07T16:29:59;22.90;98.40
582;DHT22;277;50.074;8.436;2023-05-07T16:32:28;22.80;98.50
582;DHT22;277;50.074;8.436;2023-05-07T16:34:56;22.80;98.50
582;DHT22;277;50.074;8.436;2023-05-07T16:37:24;22.70;98.40
582;DHT22;277;50.074;8.436;2023-05-07T16:39:52;22.70;98.70
582;DHT22;277;50.074;8.436;2023-05-07T16:42:19;22.40;99.90
582;DHT22;277;50.074;8.436;2023-05-07T16:44:47;21.80;99.90
582;DHT22;277;50.074;8.436;2023-05-07T16:47:15;21.20;99.90